LFBO/TLS METAR and TAF weather

Enter ICAO airport designator
Station Type Date Time Source
LFBO METAR 2020/06/06 00:30 UTC NOAA

LFBO 060030Z AUTO 22006KT 9999 OVC035 15/11 Q1012 TEMPO OVC013


Station Type Date Time Source
LFBO Decoded METAR 2020/06/06 00:30 UTC NOAA

Toulouse / Blagnac, France (LFBO) 43-38N 001-22E 153M
Jun 05, 2020 - 08:30 PM EDT / 2020.06.06 0030 UTC
Wind: from the SW (220 degrees) at 7 MPH (6 KT):0
Visibility: greater than 7 mile(s):0
Sky conditions: overcast
Temperature: 59 F (15 C)
Dew Point: 51 F (11 C)
Relative Humidity: 76%
Pressure (altimeter): 29.88 in. Hg (1012 hPa)
ob: LFBO 060030Z AUTO 22006KT 9999 OVC035 15/11 Q1012 TEMPO OVC013
cycle: 0

Station Type Date Time Source
LFBO TAF 2020/06/05 20:44 UTC NOAA

TAF
AMD LFBO 052038Z 0520/0624 27008KT 9999 SCT025 BKN040
BECMG 0520/0522 BKN013 BKN030 PROB30
TEMPO 0600/0604 5000 -RADZ OVC005
BECMG 0607/0609 BKN030
BECMG 0618/0620 BKN012 BKN030

Example: see airport list